^^
Saratoga-Weather Station Historical Data
Daily Summary for July 6, 2021 Units:  Both    English   Metric
Daily Weekly Monthly Yearly Custom
  High: Low: Average:
Temperature: 37.2 °F /  2.9 °C 33.1 °F /  0.6 °C 35.6 °F /  2 °C
Dew Point: 35.6 °F /  2 °C 31.6 °F /  -0.2 °C 34 °F /  1.1 °C
Humidity: 96% 89% 94%
Wind Speed: 4mph /  6.4km/h - 0.7mph /  1.1km/h
Wind Gust: 4mph /  6.4km/h - -
Wind- - West
Pressure: 30 in /  1014.9 hPa 29.9 in /  1012.5 hPa -
Precipitation: 0.14 in /  3.6 mm    
Historical Graphs
 
 
Tabular Data for July 6, 2021
Time Temperature Dew Point Pressure Wind Wind Speed Wind Gust Humidity Rainfall Rate (Hourly) solar
00:01 36.5 °F /  2.5 °C 34.2 °F /  1.2 °C 29.9in /  1012.9hPa North 2mph /  3.2km/h 3mph /  4.8km/h 91% 0in /  0.0mm 0 W/m2
00:06 36.5 °F /  2.5 °C 34.3 °F /  1.3 °C 29.9in /  1012.9hPa NW 0.9mph /  1.4km/h 2mph /  3.2km/h 92% 0in /  0.0mm 0 W/m2
00:11 36.3 °F /  2.4 °C 34.2 °F /  1.2 °C 29.9in /  1012.9hPa Calm   3mph /  4.8km/h 92% 0in /  0.0mm 0 W/m2
00:16 36.3 °F /  2.4 °C 34.2 °F /  1.2 °C 29.9in /  1012.9hPa North 2mph /  3.2km/h 2mph /  3.2km/h 92% 0in /  0.0mm 0 W/m2
00:21 36.3 °F /  2.4 °C 34.2 °F /  1.2 °C 29.9in /  1012.9hPa NNE 2mph /  3.2km/h 3mph /  4.8km/h 92% 0in /  0.0mm 0 W/m2
00:26 36.3 °F /  2.4 °C 34.2 °F /  1.2 °C 29.9in /  1012.9hPa Calm   1mph /  1.6km/h 92% 0in /  0.0mm 0 W/m2
00:31 36.3 °F /  2.4 °C 34.2 °F /  1.2 °C 29.9in /  1012.9hPa North 0.9mph /  1.4km/h 4mph /  6.4km/h 92% 0in /  0.0mm 0 W/m2
00:36 36.1 °F /  2.3 °C 34 °F /  1.1 °C 29.9in /  1012.9hPa NE 2mph /  3.2km/h 3mph /  4.8km/h 92% 0in /  0.0mm 0 W/m2
00:41 36.1 °F /  2.3 °C 34 °F /  1.1 °C 29.9in /  1012.9hPa East 0.9mph /  1.4km/h 4mph /  6.4km/h 92% 0in /  0.0mm 0 W/m2
00:46 36.1 °F /  2.3 °C 34 °F /  1.1 °C 29.9in /  1012.9hPa Calm   1mph /  1.6km/h 92% 0in /  0.0mm 0 W/m2
00:51 36.1 °F /  2.3 °C 34.3 °F /  1.3 °C 29.9in /  1012.9hPa WNW 2mph /  3.2km/h 4mph /  6.4km/h 93% 0in /  0.0mm 0 W/m2
00:56 36 °F /  2.2 °C 33.8 °F /  1 °C 29.9in /  1012.9hPa Calm   2mph /  3.2km/h 92% 0in /  0.0mm 0 W/m2
01:01 36 °F /  2.2 °C 34.2 °F /  1.2 °C 29.9in /  1012.9hPa Calm   1mph /  1.6km/h 93% 0in /  0.0mm 0 W/m2
01:06 35.8 °F /  2.1 °C 34 °F /  1.1 °C 29.9in /  1012.9hPa NW 0.9mph /  1.4km/h 3mph /  4.8km/h 93% 0.01in /  0.2mm 0 W/m2
01:11 35.8 °F /  2.1 °C 34 °F /  1.1 °C 29.9in /  1012.5hPa NW 2mph /  3.2km/h 2mph /  3.2km/h 93% 0.01in /  0.2mm 0 W/m2
01:16 35.8 °F /  2.1 °C 34 °F /  1.1 °C 29.9in /  1012.9hPa WNW 0.9mph /  1.4km/h 2mph /  3.2km/h 93% 0.01in /  0.2mm 0 W/m2
01:21 35.6 °F /  2 °C 33.8 °F /  1 °C 29.9in /  1012.9hPa NW 2mph /  3.2km/h 2mph /  3.2km/h 93% 0.01in /  0.2mm 0 W/m2
01:27 35.6 °F /  2 °C 33.8 °F /  1 °C 29.9in /  1012.9hPa Calm   2mph /  3.2km/h 93% 0.01in /  0.2mm 0 W/m2
01:32 35.6 °F /  2 °C 34 °F /  1.1 °C 29.9in /  1012.9hPa West 0.9mph /  1.4km/h 2mph /  3.2km/h 94% 0.01in /  0.2mm 0 W/m2
01:37 35.6 °F /  2 °C 34 °F /  1.1 °C 29.9in /  1012.5hPa West 0.9mph /  1.4km/h 1mph /  1.6km/h 94% 0.01in /  0.2mm 0 W/m2
01:42 35.6 °F /  2 °C 34 °F /  1.1 °C 29.9in /  1012.5hPa NW 0.9mph /  1.4km/h 3mph /  4.8km/h 94% 0.01in /  0.2mm 0 W/m2
01:47 35.8 °F /  2.1 °C 34.2 °F /  1.2 °C 29.9in /  1012.5hPa North 2mph /  3.2km/h 3mph /  4.8km/h 94% 0.01in /  0.2mm 0 W/m2
01:52 35.8 °F /  2.1 °C 34.2 °F /  1.2 °C 29.9in /  1012.9hPa Calm   2mph /  3.2km/h 94% 0.01in /  0.2mm 0 W/m2
01:57 35.8 °F /  2.1 °C 34.2 °F /  1.2 °C 29.9in /  1012.9hPa North 0.9mph /  1.4km/h 2mph /  3.2km/h 94% 0.01in /  0.2mm 0 W/m2
02:02 35.8 °F /  2.1 °C 34.2 °F /  1.2 °C 29.9in /  1012.9hPa Calm     94% 0.01in /  0.2mm 0 W/m2
02:07 35.8 °F /  2.1 °C 34.2 °F /  1.2 °C 29.9in /  1012.9hPa Calm   2mph /  3.2km/h 94% 0in /  0.0mm 0 W/m2
02:12 36 °F /  2.2 °C 34.3 °F /  1.3 °C 29.9in /  1012.5hPa NNE 0.9mph /  1.4km/h 2mph /  3.2km/h 94% 0in /  0.0mm 0 W/m2
02:17 36 °F /  2.2 °C 34.3 °F /  1.3 °C 29.9in /  1012.9hPa ENE 0.9mph /  1.4km/h 2mph /  3.2km/h 94% 0in /  0.0mm 0 W/m2
02:22 36 °F /  2.2 °C 34.3 °F /  1.3 °C 29.9in /  1012.5hPa NNW 0.9mph /  1.4km/h 4mph /  6.4km/h 94% 0in /  0.0mm 0 W/m2
02:27 36 °F /  2.2 °C 34.3 °F /  1.3 °C 29.9in /  1012.5hPa SSW 2mph /  3.2km/h 2mph /  3.2km/h 94% 0in /  0.0mm 0 W/m2
02:32 36 °F /  2.2 °C 34.3 °F /  1.3 °C 29.9in /  1012.9hPa NW 0.9mph /  1.4km/h 4mph /  6.4km/h 94% 0in /  0.0mm 0 W/m2
02:37 36 °F /  2.2 °C 34.3 °F /  1.3 °C 29.9in /  1012.9hPa NW 2mph /  3.2km/h 3mph /  4.8km/h 94% 0in /  0.0mm 0 W/m2
02:42 36.1 °F /  2.3 °C 34.5 °F /  1.4 °C 29.9in /  1012.9hPa Calm   4mph /  6.4km/h 94% 0in /  0.0mm 0 W/m2
02:47 36.1 °F /  2.3 °C 34.5 °F /  1.4 °C 29.9in /  1012.9hPa Calm   1mph /  1.6km/h 94% 0in /  0.0mm 0 W/m2
02:52 36.1 °F /  2.3 °C 34.5 °F /  1.4 °C 29.9in /  1012.9hPa NNW 0.9mph /  1.4km/h 2mph /  3.2km/h 94% 0in /  0.0mm 0 W/m2
02:57 36.1 °F /  2.3 °C 34.5 °F /  1.4 °C 29.9in /  1012.9hPa Calm     94% 0in /  0.0mm 0 W/m2
03:02 36.1 °F /  2.3 °C 34.5 °F /  1.4 °C 29.9in /  1012.9hPa NNE 0.9mph /  1.4km/h 3mph /  4.8km/h 94% 0in /  0.0mm 0 W/m2
03:07 36.1 °F /  2.3 °C 34.5 °F /  1.4 °C 29.9in /  1012.9hPa NNW 0.9mph /  1.4km/h 2mph /  3.2km/h 94% 0in /  0.0mm 0 W/m2
03:12 36.1 °F /  2.3 °C 34.5 °F /  1.4 °C 29.9in /  1012.9hPa Calm   1mph /  1.6km/h 94% 0in /  0.0mm 0 W/m2
03:17 36.1 °F /  2.3 °C 34.5 °F /  1.4 °C 29.9in /  1012.9hPa Calm   1mph /  1.6km/h 94% 0in /  0.0mm 0 W/m2
03:22 36.1 °F /  2.3 °C 34.3 °F /  1.3 °C 29.9in /  1012.9hPa NNW 0.9mph /  1.4km/h 4mph /  6.4km/h 93% 0in /  0.0mm 0 W/m2
03:27 36.3 °F /  2.4 °C 34.5 °F /  1.4 °C 29.9in /  1012.9hPa Calm   3mph /  4.8km/h 93% 0in /  0.0mm 0 W/m2
03:32 36.3 °F /  2.4 °C 34.5 °F /  1.4 °C 29.9in /  1012.9hPa North 0.9mph /  1.4km/h 3mph /  4.8km/h 93% 0in /  0.0mm 0 W/m2
03:37 36.3 °F /  2.4 °C 34.5 °F /  1.4 °C 29.9in /  1012.9hPa Calm   2mph /  3.2km/h 93% 0in /  0.0mm 0 W/m2
03:42 36.3 °F /  2.4 °C 34.5 °F /  1.4 °C 29.9in /  1012.9hPa Calm   3mph /  4.8km/h 93% 0in /  0.0mm 0 W/m2
03:47 36.3 °F /  2.4 °C 34.5 °F /  1.4 °C 29.9in /  1012.9hPa Calm   1mph /  1.6km/h 93% 0in /  0.0mm 0 W/m2
03:52 36.3 °F /  2.4 °C 34.5 °F /  1.4 °C 29.9in /  1012.9hPa North 2mph /  3.2km/h 2mph /  3.2km/h 93% 0in /  0.0mm 0 W/m2
03:57 36.3 °F /  2.4 °C 34.5 °F /  1.4 °C 29.9in /  1012.9hPa Calm   1mph /  1.6km/h 93% 0in /  0.0mm 0 W/m2
04:02 36.3 °F /  2.4 °C 34.2 °F /  1.2 °C 29.9in /  1012.9hPa NNE 0.9mph /  1.4km/h 1mph /  1.6km/h 92% 0in /  0.0mm 0 W/m2
04:07 36.3 °F /  2.4 °C 34.2 °F /  1.2 °C 29.9in /  1012.9hPa Calm   2mph /  3.2km/h 92% 0in /  0.0mm 0 W/m2
04:12 36.3 °F /  2.4 °C 34.2 °F /  1.2 °C 29.9in /  1012.9hPa North 0.9mph /  1.4km/h 2mph /  3.2km/h 92% 0in /  0.0mm 0 W/m2
04:17 36.1 °F /  2.3 °C 34 °F /  1.1 °C 29.9in /  1012.9hPa Calm   2mph /  3.2km/h 92% 0in /  0.0mm 0 W/m2
04:22 36.1 °F /  2.3 °C 34.3 °F /  1.3 °C 29.9in /  1012.9hPa NNW 0.9mph /  1.4km/h 2mph /  3.2km/h 93% 0.01in /  0.2mm 0 W/m2
04:27 36 °F /  2.2 °C 33.8 °F /  1 °C 29.9in /  1012.9hPa Calm   2mph /  3.2km/h 92% 0.01in /  0.2mm 0 W/m2
04:32 36 °F /  2.2 °C 34.2 °F /  1.2 °C 29.9in /  1012.9hPa Calm   1mph /  1.6km/h 93% 0.01in /  0.2mm 0 W/m2
04:37 35.8 °F /  2.1 °C 34 °F /  1.1 °C 29.9in /  1012.9hPa Calm   2mph /  3.2km/h 93% 0.02in /  0.5mm 0 W/m2
04:42 35.4 °F /  1.9 °C 33.6 °F /  0.9 °C 29.9in /  1012.9hPa Calm     93% 0.02in /  0.5mm 0 W/m2
04:47 35.2 °F /  1.8 °C 33.4 °F /  0.8 °C 29.9in /  1012.9hPa Calm   1mph /  1.6km/h 93% 0.02in /  0.5mm 0 W/m2
04:52 35.1 °F /  1.7 °C 33.3 °F /  0.7 °C 29.9in /  1012.9hPa Calm   1mph /  1.6km/h 93% 0.02in /  0.5mm 0 W/m2
04:57 35.1 °F /  1.7 °C 33.3 °F /  0.7 °C 29.9in /  1012.9hPa Calm   1mph /  1.6km/h 93% 0.02in /  0.5mm 0 W/m2
05:02 34.9 °F /  1.6 °C 33.1 °F /  0.6 °C 29.9in /  1012.9hPa Calm   1mph /  1.6km/h 93% 0.02in /  0.5mm 0 W/m2
05:07 34.5 °F /  1.4 °C 32.7 °F /  0.4 °C 29.9in /  1012.9hPa NNW 0.9mph /  1.4km/h 2mph /  3.2km/h 93% 0.02in /  0.5mm 0 W/m2
05:12 34.3 °F /  1.3 °C 32.7 °F /  0.4 °C 29.9in /  1012.9hPa Calm   1mph /  1.6km/h 94% 0.02in /  0.5mm 0 W/m2
05:17 34.2 °F /  1.2 °C 32.5 °F /  0.3 °C 29.9in /  1012.9hPa East 0.9mph /  1.4km/h 2mph /  3.2km/h 94% 0.02in /  0.5mm 0 W/m2
05:22 34 °F /  1.1 °C 32.4 °F /  0.2 °C 29.9in /  1012.9hPa Calm   1mph /  1.6km/h 94% 0.02in /  0.5mm 0 W/m2
05:27 33.8 °F /  1 °C 32.2 °F /  0.1 °C 29.9in /  1012.5hPa Calm     94% 0.02in /  0.5mm 0 W/m2
05:32 33.6 °F /  0.9 °C 32 °F /  0 °C 29.9in /  1012.5hPa Calm     94% 0.02in /  0.5mm 0 W/m2
05:37 33.4 °F /  0.8 °C 31.8 °F /  -0.1 °C 29.9in /  1012.5hPa NNE 0.9mph /  1.4km/h 2mph /  3.2km/h 94% 0.01in /  0.2mm 0 W/m2
05:42 33.3 °F /  0.7 °C 31.6 °F /  -0.2 °C 29.9in /  1012.5hPa Calm     94% 0.01in /  0.2mm 0 W/m2
05:47 33.3 °F /  0.7 °C 32 °F /  0 °C 29.9in /  1012.5hPa East 0.9mph /  1.4km/h 2mph /  3.2km/h 95% 0.01in /  0.2mm 0 W/m2
05:52 33.3 °F /  0.7 °C 32 °F /  0 °C 29.9in /  1012.5hPa Calm   1mph /  1.6km/h 95% 0in /  0.0mm 0 W/m2
05:57 33.3 °F /  0.7 °C 32 °F /  0 °C 29.9in /  1012.5hPa Calm   1mph /  1.6km/h 95% 0in /  0.0mm 0 W/m2
06:02 33.3 °F /  0.7 °C 32 °F /  0 °C 29.9in /  1012.5hPa Calm     95% 0in /  0.0mm 0 W/m2
06:07 33.1 °F /  0.6 °C 31.8 °F /  -0.1 °C 29.9in /  1012.5hPa Calm     95% 0in /  0.0mm 0 W/m2
06:12 33.1 °F /  0.6 °C 31.8 °F /  -0.1 °C 29.9in /  1012.5hPa Calm     95% 0in /  0.0mm 0 W/m2
06:17 33.1 °F /  0.6 °C 31.8 °F /  -0.1 °C 29.9in /  1012.5hPa Calm     95% 0in /  0.0mm 0 W/m2
06:22 33.1 °F /  0.6 °C 31.8 °F /  -0.1 °C 29.9in /  1012.5hPa Calm     95% 0in /  0.0mm 0 W/m2
06:27 33.1 °F /  0.6 °C 31.8 °F /  -0.1 °C 29.9in /  1012.5hPa Calm   1mph /  1.6km/h 95% 0in /  0.0mm 0 W/m2
06:32 33.1 °F /  0.6 °C 31.8 °F /  -0.1 °C 29.9in /  1012.5hPa Calm     95% 0in /  0.0mm 0 W/m2
06:37 33.1 °F /  0.6 °C 31.8 °F /  -0.1 °C 29.9in /  1012.5hPa Calm   1mph /  1.6km/h 95% 0in /  0.0mm 0 W/m2
06:42 33.1 °F /  0.6 °C 31.8 °F /  -0.1 °C 29.9in /  1012.5hPa Calm     95% 0in /  0.0mm 0 W/m2
06:47 33.1 °F /  0.6 °C 31.8 °F /  -0.1 °C 29.9in /  1012.5hPa Calm     95% 0in /  0.0mm 0 W/m2
06:52 33.1 °F /  0.6 °C 31.8 °F /  -0.1 °C 29.9in /  1012.5hPa Calm     95% 0in /  0.0mm 0 W/m2
06:57 33.1 °F /  0.6 °C 32 °F /  0 °C 29.9in /  1012.5hPa Calm     96% 0.01in /  0.2mm 0 W/m2
07:02 33.1 °F /  0.6 °C 32 °F /  0 °C 29.9in /  1012.5hPa Calm     96% 0.01in /  0.2mm 0 W/m2
07:07 33.3 °F /  0.7 °C 32.2 °F /  0.1 °C 29.9in /  1012.5hPa Calm     96% 0.01in /  0.2mm 0 W/m2
07:12 33.3 °F /  0.7 °C 32.2 °F /  0.1 °C 29.9in /  1012.9hPa West 0.9mph /  1.4km/h 2mph /  3.2km/h 96% 0.01in /  0.2mm 0 W/m2
07:17 33.3 °F /  0.7 °C 32.2 °F /  0.1 °C 29.9in /  1012.5hPa West 2mph /  3.2km/h 4mph /  6.4km/h 96% 0.01in /  0.2mm 0 W/m2
07:22 33.4 °F /  0.8 °C 32.4 °F /  0.2 °C 29.9in /  1012.9hPa Calm   2mph /  3.2km/h 96% 0.01in /  0.2mm 0 W/m2
07:27 33.6 °F /  0.9 °C 32.5 °F /  0.3 °C 29.9in /  1012.9hPa Calm   4mph /  6.4km/h 96% 0.01in /  0.2mm 0 W/m2
07:32 33.6 °F /  0.9 °C 32.5 °F /  0.3 °C 29.9in /  1012.9hPa Calm     96% 0.01in /  0.2mm 0 W/m2
07:37 33.6 °F /  0.9 °C 32.5 °F /  0.3 °C 29.9in /  1012.9hPa WNW 0.9mph /  1.4km/h 1mph /  1.6km/h 96% 0.01in /  0.2mm 0 W/m2
07:42 33.6 °F /  0.9 °C 32.5 °F /  0.3 °C 29.9in /  1012.9hPa WNW 0.9mph /  1.4km/h 2mph /  3.2km/h 96% 0.01in /  0.2mm 0 W/m2
07:47 33.6 °F /  0.9 °C 32.5 °F /  0.3 °C 29.9in /  1012.9hPa West 0.9mph /  1.4km/h 2mph /  3.2km/h 96% 0.01in /  0.2mm 0 W/m2
07:52 33.6 °F /  0.9 °C 32.5 °F /  0.3 °C 29.9in /  1012.9hPa West 0.9mph /  1.4km/h 2mph /  3.2km/h 96% 0.01in /  0.2mm 0 W/m2
07:57 33.8 °F /  1 °C 32.7 °F /  0.4 °C 29.9in /  1012.9hPa WNW 0.9mph /  1.4km/h 3mph /  4.8km/h 96% 0in /  0.0mm 0 W/m2
08:02 33.8 °F /  1 °C 32.7 °F /  0.4 °C 29.9in /  1012.9hPa Calm   2mph /  3.2km/h 96% 0in /  0.0mm 0 W/m2
08:07 34 °F /  1.1 °C 32.9 °F /  0.5 °C 29.9in /  1012.9hPa WNW 2mph /  3.2km/h 2mph /  3.2km/h 96% 0in /  0.0mm 0 W/m2
08:12 34 °F /  1.1 °C 32.9 °F /  0.5 °C 29.9in /  1012.9hPa West 0.9mph /  1.4km/h 2mph /  3.2km/h 96% 0in /  0.0mm 0 W/m2
08:17 34 °F /  1.1 °C 32.9 °F /  0.5 °C 29.9in /  1012.9hPa Calm   2mph /  3.2km/h 96% 0in /  0.0mm 0 W/m2
08:22 34 °F /  1.1 °C 32.9 °F /  0.5 °C 29.9in /  1012.9hPa Calm   1mph /  1.6km/h 96% 0in /  0.0mm 0 W/m2
08:27 34 °F /  1.1 °C 32.9 °F /  0.5 °C 29.9in /  1012.9hPa Calm     96% 0in /  0.0mm 0 W/m2
08:32 34 °F /  1.1 °C 32.9 °F /  0.5 °C 29.9in /  1013.2hPa Calm   1mph /  1.6km/h 96% 0in /  0.0mm 0 W/m2
08:37 34 °F /  1.1 °C 32.9 °F /  0.5 °C 29.9in /  1013.2hPa Calm   3mph /  4.8km/h 96% 0in /  0.0mm 0 W/m2
08:42 34 °F /  1.1 °C 32.9 °F /  0.5 °C 29.9in /  1013.2hPa Calm   1mph /  1.6km/h 96% 0.01in /  0.2mm 0 W/m2
08:47 34 °F /  1.1 °C 32.9 °F /  0.5 °C 29.9in /  1013.2hPa Calm   2mph /  3.2km/h 96% 0.01in /  0.2mm 0 W/m2
08:52 34.2 °F /  1.2 °C 33.1 °F /  0.6 °C 29.9in /  1013.2hPa Calm   1mph /  1.6km/h 96% 0.01in /  0.2mm 5 W/m2
08:57 34.2 °F /  1.2 °C 33.1 °F /  0.6 °C 29.9in /  1013.2hPa NNW 0.9mph /  1.4km/h 1mph /  1.6km/h 96% 0.01in /  0.2mm 7 W/m2
09:02 34 °F /  1.1 °C 32.9 °F /  0.5 °C 29.9in /  1013.2hPa NNW 0.9mph /  1.4km/h 1mph /  1.6km/h 96% 0.02in /  0.5mm 9 W/m2
09:07 34.2 °F /  1.2 °C 33.1 °F /  0.6 °C 29.9in /  1013.5hPa NW 0.9mph /  1.4km/h 1mph /  1.6km/h 96% 0.02in /  0.5mm 12 W/m2
09:12 34.2 °F /  1.2 °C 33.1 °F /  0.6 °C 29.9in /  1013.5hPa Calm     96% 0.02in /  0.5mm 16 W/m2
09:17 34.2 °F /  1.2 °C 33.1 °F /  0.6 °C 29.9in /  1013.5hPa NW 0.9mph /  1.4km/h 2mph /  3.2km/h 96% 0.02in /  0.5mm 21 W/m2
09:23 34.2 °F /  1.2 °C 33.1 °F /  0.6 °C 29.9in /  1013.5hPa Calm     96% 0.02in /  0.5mm 21 W/m2
09:28 34.2 °F /  1.2 °C 33.1 °F /  0.6 °C 29.9in /  1013.5hPa NW 0.9mph /  1.4km/h 2mph /  3.2km/h 96% 0.02in /  0.5mm 19 W/m2
09:33 34.2 °F /  1.2 °C 33.1 °F /  0.6 °C 29.9in /  1013.5hPa Calm   1mph /  1.6km/h 96% 0.02in /  0.5mm 21 W/m2
09:38 34.2 °F /  1.2 °C 33.1 °F /  0.6 °C 29.9in /  1013.5hPa Calm   2mph /  3.2km/h 96% 0.03in /  0.8mm 23 W/m2
09:43 34.2 °F /  1.2 °C 33.1 °F /  0.6 °C 29.9in /  1013.5hPa WNW 0.9mph /  1.4km/h 2mph /  3.2km/h 96% 0.02in /  0.5mm 26 W/m2
09:48 34.2 °F /  1.2 °C 33.1 °F /  0.6 °C 29.9in /  1013.5hPa Calm   1mph /  1.6km/h 96% 0.02in /  0.5mm 26 W/m2
09:53 34.2 °F /  1.2 °C 33.1 °F /  0.6 °C 29.9in /  1013.5hPa Calm     96% 0.02in /  0.5mm 32 W/m2
09:58 34.3 °F /  1.3 °C 33.3 °F /  0.7 °C 29.9in /  1013.5hPa Calm   2mph /  3.2km/h 96% 0.03in /  0.8mm 44 W/m2
10:03 34.3 °F /  1.3 °C 33.3 °F /  0.7 °C 29.9in /  1013.5hPa Calm   1mph /  1.6km/h 96% 0.02in /  0.5mm 49 W/m2
10:08 34.3 °F /  1.3 °C 33.3 °F /  0.7 °C 29.9in /  1013.5hPa Calm   3mph /  4.8km/h 96% 0.02in /  0.5mm 53 W/m2
10:13 34.3 °F /  1.3 °C 33.3 °F /  0.7 °C 29.9in /  1013.5hPa Calm   1mph /  1.6km/h 96% 0.03in /  0.8mm 49 W/m2
10:18 34.3 °F /  1.3 °C 33.3 °F /  0.7 °C 29.9in /  1013.5hPa NE 0.9mph /  1.4km/h 2mph /  3.2km/h 96% 0.03in /  0.8mm 51 W/m2
10:23 34.5 °F /  1.4 °C 33.4 °F /  0.8 °C 29.9in /  1013.9hPa NE 0.9mph /  1.4km/h 1mph /  1.6km/h 96% 0.03in /  0.8mm 46 W/m2
10:28 34.5 °F /  1.4 °C 33.4 °F /  0.8 °C 29.9in /  1013.9hPa Calm     96% 0.03in /  0.8mm 37 W/m2
10:33 34.5 °F /  1.4 °C 33.4 °F /  0.8 °C 29.9in /  1013.9hPa Calm   3mph /  4.8km/h 96% 0.03in /  0.8mm 32 W/m2
10:38 34.5 °F /  1.4 °C 33.4 °F /  0.8 °C 29.9in /  1013.9hPa ENE 2mph /  3.2km/h 2mph /  3.2km/h 96% 0.02in /  0.5mm 37 W/m2
10:43 34.5 °F /  1.4 °C 33.4 °F /  0.8 °C 29.9in /  1013.9hPa Calm   3mph /  4.8km/h 96% 0.03in /  0.8mm 37 W/m2
10:48 34.5 °F /  1.4 °C 33.4 °F /  0.8 °C 29.9in /  1013.9hPa North 0.9mph /  1.4km/h 1mph /  1.6km/h 96% 0.03in /  0.8mm 39 W/m2
10:53 34.5 °F /  1.4 °C 33.3 °F /  0.7 °C 29.9in /  1013.9hPa Calm   3mph /  4.8km/h 95% 0.03in /  0.8mm 33 W/m2
10:58 34.5 °F /  1.4 °C 33.3 °F /  0.7 °C 29.9in /  1013.9hPa West 0.9mph /  1.4km/h 2mph /  3.2km/h 95% 0.03in /  0.8mm 26 W/m2
11:08 34.7 °F /  1.5 °C 33.6 °F /  0.9 °C 29.9in /  1013.9hPa WNW 0.9mph /  1.4km/h 1mph /  1.6km/h 96% 0.03in /  0.8mm 44 W/m2
11:13 34.7 °F /  1.5 °C 33.6 °F /  0.9 °C 29.9in /  1013.9hPa Calm   2mph /  3.2km/h 96% 0.02in /  0.5mm 56 W/m2
11:18 34.9 °F /  1.6 °C 33.8 °F /  1 °C 29.9in /  1013.9hPa WNW 2mph /  3.2km/h 2mph /  3.2km/h 96% 0.03in /  0.8mm 76 W/m2
11:23 34.9 °F /  1.6 °C 33.8 °F /  1 °C 29.9in /  1013.9hPa WNW 0.9mph /  1.4km/h 2mph /  3.2km/h 96% 0.02in /  0.5mm 88 W/m2
11:28 35.1 °F /  1.7 °C 34 °F /  1.1 °C 29.9in /  1013.9hPa WNW 2mph /  3.2km/h 2mph /  3.2km/h 96% 0.02in /  0.5mm 100 W/m2
11:33 35.1 °F /  1.7 °C 33.8 °F /  1 °C 29.9in /  1013.9hPa Calm   2mph /  3.2km/h 95% 0.02in /  0.5mm 105 W/m2
11:38 35.2 °F /  1.8 °C 34 °F /  1.1 °C 29.9in /  1013.9hPa WNW 2mph /  3.2km/h 2mph /  3.2km/h 95% 0.03in /  0.8mm 123 W/m2
11:43 35.4 °F /  1.9 °C 34.3 °F /  1.3 °C 29.9in /  1013.9hPa West 0.9mph /  1.4km/h 2mph /  3.2km/h 96% 0.02in /  0.5mm 116 W/m2
11:48 35.4 °F /  1.9 °C 34.2 °F /  1.2 °C 29.9in /  1013.9hPa Calm   4mph /  6.4km/h 95% 0.02in /  0.5mm 97 W/m2
11:53 35.6 °F /  2 °C 34.3 °F /  1.3 °C 29.9in /  1013.9hPa WNW 0.9mph /  1.4km/h 3mph /  4.8km/h 95% 0.02in /  0.5mm 113 W/m2
11:58 35.8 °F /  2.1 °C 34.5 °F /  1.4 °C 29.9in /  1013.9hPa WNW 0.9mph /  1.4km/h 2mph /  3.2km/h 95% 0.02in /  0.5mm 116 W/m2
12:03 36 °F /  2.2 °C 34.7 °F /  1.5 °C 29.9in /  1013.9hPa WNW 2mph /  3.2km/h 2mph /  3.2km/h 95% 0.02in /  0.5mm 137 W/m2
12:08 36.1 °F /  2.3 °C 34.9 °F /  1.6 °C 29.9in /  1013.5hPa WNW 0.9mph /  1.4km/h 3mph /  4.8km/h 95% 0.02in /  0.5mm 165 W/m2
12:13 36.3 °F /  2.4 °C 35.1 °F /  1.7 °C 29.9in /  1013.5hPa WNW 0.9mph /  1.4km/h 2mph /  3.2km/h 95% 0.02in /  0.5mm 142 W/m2
12:18 36.5 °F /  2.5 °C 35.2 °F /  1.8 °C 29.9in /  1013.5hPa WNW 2mph /  3.2km/h 3mph /  4.8km/h 95% 0.01in /  0.2mm 141 W/m2
12:23 36.9 °F /  2.7 °C 35.6 °F /  2 °C 29.9in /  1013.5hPa NW 0.9mph /  1.4km/h 3mph /  4.8km/h 95% 0.01in /  0.2mm 95 W/m2
12:28 36.9 °F /  2.7 °C 35.2 °F /  1.8 °C 29.9in /  1013.5hPa NNW 0.9mph /  1.4km/h 2mph /  3.2km/h 94% 0.01in /  0.2mm 76 W/m2
12:33 37 °F /  2.8 °C 35.4 °F /  1.9 °C 29.9in /  1013.5hPa NW 0.9mph /  1.4km/h 3mph /  4.8km/h 94% 0.01in /  0.2mm 49 W/m2
12:38 37 °F /  2.8 °C 35.4 °F /  1.9 °C 29.9in /  1013.5hPa Calm   2mph /  3.2km/h 94% 0in /  0.0mm 46 W/m2
12:43 37 °F /  2.8 °C 35.4 °F /  1.9 °C 29.9in /  1013.5hPa NW 0.9mph /  1.4km/h 2mph /  3.2km/h 94% 0in /  0.0mm 67 W/m2
12:48 37 °F /  2.8 °C 35.4 °F /  1.9 °C 29.9in /  1013.5hPa North 0.9mph /  1.4km/h 2mph /  3.2km/h 94% 0in /  0.0mm 76 W/m2
12:53 37 °F /  2.8 °C 35.4 °F /  1.9 °C 29.9in /  1013.5hPa North 4mph /  6.4km/h 4mph /  6.4km/h 94% 0in /  0.0mm 65 W/m2
12:58 37 °F /  2.8 °C 35.4 °F /  1.9 °C 29.9in /  1013.5hPa Calm   2mph /  3.2km/h 94% 0in /  0.0mm 44 W/m2
13:03 37.2 °F /  2.9 °C 35.4 °F /  1.9 °C 29.9in /  1013.2hPa North 0.9mph /  1.4km/h 2mph /  3.2km/h 93% 0in /  0.0mm 35 W/m2
13:08 37.2 °F /  2.9 °C 35.6 °F /  2 °C 29.9in /  1013.2hPa North 2mph /  3.2km/h 3mph /  4.8km/h 94% 0in /  0.0mm 33 W/m2
13:13 37.2 °F /  2.9 °C 35.6 °F /  2 °C 29.9in /  1013.2hPa NNW 0.9mph /  1.4km/h 4mph /  6.4km/h 94% 0in /  0.0mm 37 W/m2
13:18 37 °F /  2.8 °C 35.2 °F /  1.8 °C 29.9in /  1013.2hPa Calm   2mph /  3.2km/h 93% 0in /  0.0mm 32 W/m2
13:23 37 °F /  2.8 °C 35.2 °F /  1.8 °C 29.9in /  1013.2hPa NNE 0.9mph /  1.4km/h 4mph /  6.4km/h 93% 0in /  0.0mm 25 W/m2
13:28 37 °F /  2.8 °C 35.2 °F /  1.8 °C 29.9in /  1013.2hPa Calm   2mph /  3.2km/h 93% 0in /  0.0mm 21 W/m2
13:33 37 °F /  2.8 °C 35.2 °F /  1.8 °C 29.9in /  1013.2hPa Calm     93% 0in /  0.0mm 18 W/m2
13:38 37 °F /  2.8 °C 35.2 °F /  1.8 °C 29.9in /  1013.2hPa Calm   2mph /  3.2km/h 93% 0in /  0.0mm 14 W/m2
13:43 36.9 °F /  2.7 °C 35.1 °F /  1.7 °C 29.9in /  1013.2hPa Calm     93% 0in /  0.0mm 18 W/m2
13:48 37 °F /  2.8 °C 35.2 °F /  1.8 °C 29.9in /  1013.2hPa NNE 0.9mph /  1.4km/h 2mph /  3.2km/h 93% 0in /  0.0mm 18 W/m2
13:53 36.9 °F /  2.7 °C 35.1 °F /  1.7 °C 29.9in /  1013.2hPa Calm     93% 0in /  0.0mm 23 W/m2
13:58 36.9 °F /  2.7 °C 35.1 °F /  1.7 °C 29.9in /  1013.2hPa Calm   1mph /  1.6km/h 93% 0in /  0.0mm 23 W/m2
14:03 37 °F /  2.8 °C 35.2 °F /  1.8 °C 29.9in /  1013.2hPa NE 2mph /  3.2km/h 2mph /  3.2km/h 93% 0in /  0.0mm 39 W/m2
14:08 37 °F /  2.8 °C 35.2 °F /  1.8 °C 29.9in /  1013.2hPa Calm   1mph /  1.6km/h 93% 0in /  0.0mm 46 W/m2
14:13 37 °F /  2.8 °C 35.2 °F /  1.8 °C 29.9in /  1013.2hPa NE 0.9mph /  1.4km/h 1mph /  1.6km/h 93% 0.01in /  0.2mm 42 W/m2
14:18 37 °F /  2.8 °C 35.2 °F /  1.8 °C 29.9in /  1013.2hPa NE 0.9mph /  1.4km/h 2mph /  3.2km/h 93% 0.01in /  0.2mm 46 W/m2
14:23 36.9 °F /  2.7 °C 35.1 °F /  1.7 °C 29.9in /  1013.2hPa Calm   1mph /  1.6km/h 93% 0.01in /  0.2mm 46 W/m2
14:28 36.9 °F /  2.7 °C 35.1 °F /  1.7 °C 29.9in /  1013.2hPa Calm   1mph /  1.6km/h 93% 0.01in /  0.2mm 46 W/m2
14:33 36.9 °F /  2.7 °C 35.1 °F /  1.7 °C 29.9in /  1013.2hPa Calm     93% 0.01in /  0.2mm 35 W/m2
14:38 36.9 °F /  2.7 °C 35.2 °F /  1.8 °C 29.9in /  1013.2hPa Calm     94% 0.01in /  0.2mm 26 W/m2
14:43 36.9 °F /  2.7 °C 35.2 °F /  1.8 °C 29.9in /  1013.2hPa East 0.9mph /  1.4km/h 1mph /  1.6km/h 94% 0.01in /  0.2mm 28 W/m2
14:48 36.9 °F /  2.7 °C 35.2 °F /  1.8 °C 29.9in /  1013.2hPa Calm   1mph /  1.6km/h 94% 0.01in /  0.2mm 32 W/m2
14:53 36.9 °F /  2.7 °C 35.2 °F /  1.8 °C 29.9in /  1013.2hPa Calm     94% 0.01in /  0.2mm 37 W/m2
14:58 36.9 °F /  2.7 °C 35.2 °F /  1.8 °C 29.9in /  1013.2hPa WSW 0.9mph /  1.4km/h 3mph /  4.8km/h 94% 0.01in /  0.2mm 30 W/m2
15:03 36.9 °F /  2.7 °C 35.2 °F /  1.8 °C 29.9in /  1013.2hPa Calm     94% 0.01in /  0.2mm 23 W/m2
15:08 36.9 °F /  2.7 °C 35.2 °F /  1.8 °C 29.9in /  1013.2hPa WSW 2mph /  3.2km/h 3mph /  4.8km/h 94% 0.01in /  0.2mm 18 W/m2
15:13 36.9 °F /  2.7 °C 35.2 °F /  1.8 °C 29.9in /  1013.2hPa WNW 0.9mph /  1.4km/h 2mph /  3.2km/h 94% 0in /  0.0mm 18 W/m2
15:18 37 °F /  2.8 °C 35.4 °F /  1.9 °C 29.9in /  1013.2hPa Calm   3mph /  4.8km/h 94% 0in /  0.0mm 14 W/m2
15:23 37 °F /  2.8 °C 35.4 °F /  1.9 °C 29.9in /  1013.2hPa WNW 0.9mph /  1.4km/h 2mph /  3.2km/h 94% 0in /  0.0mm 12 W/m2
15:28 37 °F /  2.8 °C 35.2 °F /  1.8 °C 29.9in /  1013.5hPa Calm   2mph /  3.2km/h 93% 0in /  0.0mm 12 W/m2
15:33 37 °F /  2.8 °C 35.2 °F /  1.8 °C 29.9in /  1013.5hPa Calm   2mph /  3.2km/h 93% 0in /  0.0mm 11 W/m2
15:38 37 °F /  2.8 °C 35.2 °F /  1.8 °C 29.9in /  1013.5hPa Calm   1mph /  1.6km/h 93% 0in /  0.0mm 11 W/m2
15:43 37 °F /  2.8 °C 35.2 °F /  1.8 °C 29.9in /  1013.5hPa Calm   1mph /  1.6km/h 93% 0in /  0.0mm 11 W/m2
15:48 37 °F /  2.8 °C 34.9 °F /  1.6 °C 29.9in /  1013.5hPa Calm     92% 0in /  0.0mm 9 W/m2
15:53 37 °F /  2.8 °C 35.2 °F /  1.8 °C 29.9in /  1013.5hPa Calm     93% 0in /  0.0mm 11 W/m2
15:58 37 °F /  2.8 °C 34.9 °F /  1.6 °C 29.9in /  1013.5hPa Calm     92% 0in /  0.0mm 9 W/m2
16:03 37 °F /  2.8 °C 35.2 °F /  1.8 °C 29.9in /  1013.5hPa Calm     93% 0in /  0.0mm 9 W/m2
16:08 37 °F /  2.8 °C 35.2 °F /  1.8 °C 29.9in /  1013.5hPa Calm   1mph /  1.6km/h 93% 0in /  0.0mm 7 W/m2
16:13 37 °F /  2.8 °C 35.2 °F /  1.8 °C 29.9in /  1013.5hPa Calm     93% 0in /  0.0mm 5 W/m2
16:18 36.9 °F /  2.7 °C 35.1 °F /  1.7 °C 29.9in /  1013.5hPa Calm   1mph /  1.6km/h 93% 0in /  0.0mm 5 W/m2
16:24 36.9 °F /  2.7 °C 35.1 °F /  1.7 °C 29.9in /  1013.5hPa WNW 2mph /  3.2km/h 2mph /  3.2km/h 93% 0in /  0.0mm 5 W/m2
16:29 36.9 °F /  2.7 °C 35.1 °F /  1.7 °C 29.9in /  1013.5hPa West 2mph /  3.2km/h 2mph /  3.2km/h 93% 0in /  0.0mm 0 W/m2
16:34 36.9 °F /  2.7 °C 35.2 °F /  1.8 °C 29.9in /  1013.5hPa West 0.9mph /  1.4km/h 2mph /  3.2km/h 94% 0in /  0.0mm 0 W/m2
16:39 36.9 °F /  2.7 °C 35.2 °F /  1.8 °C 29.9in /  1013.5hPa WNW 0.9mph /  1.4km/h 2mph /  3.2km/h 94% 0in /  0.0mm 0 W/m2
16:44 36.9 °F /  2.7 °C 35.2 °F /  1.8 °C 29.9in /  1013.5hPa WNW 2mph /  3.2km/h 3mph /  4.8km/h 94% 0in /  0.0mm 0 W/m2
16:49 36.9 °F /  2.7 °C 35.2 °F /  1.8 °C 29.9in /  1013.5hPa West 0.9mph /  1.4km/h 2mph /  3.2km/h 94% 0in /  0.0mm 0 W/m2
16:54 36.7 °F /  2.6 °C 35.1 °F /  1.7 °C 29.9in /  1013.5hPa West 2mph /  3.2km/h 3mph /  4.8km/h 94% 0in /  0.0mm 0 W/m2
16:59 36.7 °F /  2.6 °C 35.1 °F /  1.7 °C 29.9in /  1013.5hPa Calm   2mph /  3.2km/h 94% 0in /  0.0mm 0 W/m2
17:04 36.7 °F /  2.6 °C 35.1 °F /  1.7 °C 29.9in /  1013.5hPa West 4mph /  6.4km/h 4mph /  6.4km/h 94% 0in /  0.0mm 0 W/m2
17:09 36.7 °F /  2.6 °C 35.1 °F /  1.7 °C 29.9in /  1013.5hPa Calm   2mph /  3.2km/h 94% 0in /  0.0mm 0 W/m2
17:14 36.7 °F /  2.6 °C 35.1 °F /  1.7 °C 29.9in /  1013.9hPa NW 2.9mph /  4.7km/h 3mph /  4.8km/h 94% 0in /  0.0mm 0 W/m2
17:19 36.7 °F /  2.6 °C 35.1 °F /  1.7 °C 29.9in /  1013.9hPa WNW 2mph /  3.2km/h 4mph /  6.4km/h 94% 0in /  0.0mm 0 W/m2
17:24 36.7 °F /  2.6 °C 35.1 °F /  1.7 °C 29.9in /  1013.9hPa WNW 0.9mph /  1.4km/h 1mph /  1.6km/h 94% 0in /  0.0mm 0 W/m2
17:29 36.5 °F /  2.5 °C 34.9 °F /  1.6 °C 29.9in /  1013.9hPa WNW 0.9mph /  1.4km/h 2mph /  3.2km/h 94% 0.01in /  0.2mm 0 W/m2
17:34 36.5 °F /  2.5 °C 34.9 °F /  1.6 °C 29.9in /  1013.9hPa West 0.9mph /  1.4km/h 2mph /  3.2km/h 94% 0.01in /  0.2mm 0 W/m2
17:39 36.3 °F /  2.4 °C 34.7 °F /  1.5 °C 29.9in /  1013.9hPa West 0.9mph /  1.4km/h 2mph /  3.2km/h 94% 0.01in /  0.2mm 0 W/m2
17:44 36.3 °F /  2.4 °C 34.7 °F /  1.5 °C 29.9in /  1013.9hPa West 0.9mph /  1.4km/h 1mph /  1.6km/h 94% 0.01in /  0.2mm 0 W/m2
17:49 36.3 °F /  2.4 °C 34.7 °F /  1.5 °C 29.9in /  1013.9hPa West 0.9mph /  1.4km/h 2mph /  3.2km/h 94% 0.01in /  0.2mm 0 W/m2
17:54 36.1 °F /  2.3 °C 34.5 °F /  1.4 °C 29.9in /  1013.9hPa WSW 2.9mph /  4.7km/h 4mph /  6.4km/h 94% 0.01in /  0.2mm 0 W/m2
17:59 36.1 °F /  2.3 °C 34.5 °F /  1.4 °C 29.9in /  1013.9hPa WSW 2mph /  3.2km/h 4mph /  6.4km/h 94% 0.01in /  0.2mm 0 W/m2
18:04 36.1 °F /  2.3 °C 34.5 °F /  1.4 °C 29.9in /  1013.9hPa West 2.9mph /  4.7km/h 4mph /  6.4km/h 94% 0.01in /  0.2mm 0 W/m2
18:09 36.1 °F /  2.3 °C 34.5 °F /  1.4 °C 30in /  1014.2hPa West 0.9mph /  1.4km/h 2mph /  3.2km/h 94% 0.01in /  0.2mm 0 W/m2
18:14 36.1 °F /  2.3 °C 34.5 °F /  1.4 °C 30in /  1014.2hPa West 0.9mph /  1.4km/h 3mph /  4.8km/h 94% 0.01in /  0.2mm 0 W/m2
18:19 36.1 °F /  2.3 °C 34.5 °F /  1.4 °C 30in /  1014.2hPa West 2mph /  3.2km/h 4mph /  6.4km/h 94% 0.01in /  0.2mm 0 W/m2
18:24 36.1 °F /  2.3 °C 34.5 °F /  1.4 °C 30in /  1014.2hPa WNW 2mph /  3.2km/h 2mph /  3.2km/h 94% 0.01in /  0.2mm 0 W/m2
18:29 36.1 °F /  2.3 °C 34.5 °F /  1.4 °C 30in /  1014.2hPa WNW 2mph /  3.2km/h 4mph /  6.4km/h 94% 0in /  0.0mm 0 W/m2
18:34 36 °F /  2.2 °C 34.3 °F /  1.3 °C 30in /  1014.2hPa Calm   1mph /  1.6km/h 94% 0in /  0.0mm 0 W/m2
18:39 36 °F /  2.2 °C 34.3 °F /  1.3 °C 30in /  1014.2hPa Calm     94% 0in /  0.0mm 0 W/m2
18:44 36 °F /  2.2 °C 34.3 °F /  1.3 °C 30in /  1014.2hPa West 0.9mph /  1.4km/h 2mph /  3.2km/h 94% 0in /  0.0mm 0 W/m2
18:49 36 °F /  2.2 °C 34.3 °F /  1.3 °C 30in /  1014.2hPa West 0.9mph /  1.4km/h 1mph /  1.6km/h 94% 0in /  0.0mm 0 W/m2
18:54 36 °F /  2.2 °C 34.3 °F /  1.3 °C 30in /  1014.2hPa Calm   1mph /  1.6km/h 94% 0in /  0.0mm 0 W/m2
18:59 36 °F /  2.2 °C 34.3 °F /  1.3 °C 30in /  1014.2hPa Calm   1mph /  1.6km/h 94% 0in /  0.0mm 0 W/m2
19:04 36 °F /  2.2 °C 34.3 °F /  1.3 °C 30in /  1014.2hPa Calm   1mph /  1.6km/h 94% 0in /  0.0mm 0 W/m2
19:09 35.8 °F /  2.1 °C 34.2 °F /  1.2 °C 30in /  1014.6hPa Calm   1mph /  1.6km/h 94% 0in /  0.0mm 0 W/m2
19:14 35.8 °F /  2.1 °C 34.2 °F /  1.2 °C 30in /  1014.6hPa Calm     94% 0in /  0.0mm 0 W/m2
19:19 35.8 °F /  2.1 °C 34.2 °F /  1.2 °C 30in /  1014.6hPa Calm     94% 0in /  0.0mm 0 W/m2
19:24 35.8 °F /  2.1 °C 34.2 °F /  1.2 °C 30in /  1014.6hPa Calm   1mph /  1.6km/h 94% 0in /  0.0mm 0 W/m2
19:29 35.8 °F /  2.1 °C 34.2 °F /  1.2 °C 30in /  1014.6hPa West 0.9mph /  1.4km/h 2mph /  3.2km/h 94% 0in /  0.0mm 0 W/m2
19:34 35.8 °F /  2.1 °C 34.2 °F /  1.2 °C 30in /  1014.6hPa West 0.9mph /  1.4km/h 2mph /  3.2km/h 94% 0in /  0.0mm 0 W/m2
19:39 35.8 °F /  2.1 °C 34.2 °F /  1.2 °C 30in /  1014.6hPa WNW 0.9mph /  1.4km/h 3mph /  4.8km/h 94% 0in /  0.0mm 0 W/m2
19:44 36 °F /  2.2 °C 34.3 °F /  1.3 °C 30in /  1014.6hPa WSW 0.9mph /  1.4km/h 2mph /  3.2km/h 94% 0in /  0.0mm 0 W/m2
19:49 36 °F /  2.2 °C 34.3 °F /  1.3 °C 30in /  1014.6hPa West 2mph /  3.2km/h 2mph /  3.2km/h 94% 0in /  0.0mm 0 W/m2
19:54 36 °F /  2.2 °C 34.3 °F /  1.3 °C 30in /  1014.6hPa WNW 0.9mph /  1.4km/h 3mph /  4.8km/h 94% 0in /  0.0mm 0 W/m2
19:59 36 °F /  2.2 °C 34.3 °F /  1.3 °C 30in /  1014.6hPa West 2mph /  3.2km/h 3mph /  4.8km/h 94% 0in /  0.0mm 0 W/m2
20:04 36 °F /  2.2 °C 34.3 °F /  1.3 °C 30in /  1014.6hPa West 0.9mph /  1.4km/h 2mph /  3.2km/h 94% 0in /  0.0mm 0 W/m2
20:09 36 °F /  2.2 °C 34.3 °F /  1.3 °C 30in /  1014.6hPa Calm     94% 0in /  0.0mm 0 W/m2
20:14 36 °F /  2.2 °C 34.3 °F /  1.3 °C 30in /  1014.6hPa West 0.9mph /  1.4km/h 1mph /  1.6km/h 94% 0in /  0.0mm 0 W/m2
20:19 35.8 °F /  2.1 °C 34.2 °F /  1.2 °C 30in /  1014.6hPa Calm     94% 0in /  0.0mm 0 W/m2
20:24 35.8 °F /  2.1 °C 34.2 °F /  1.2 °C 30in /  1014.6hPa Calm     94% 0in /  0.0mm 0 W/m2
20:29 35.8 °F /  2.1 °C 34.2 °F /  1.2 °C 30in /  1014.6hPa West 2mph /  3.2km/h 3mph /  4.8km/h 94% 0in /  0.0mm 0 W/m2
20:34 35.6 °F /  2 °C 34 °F /  1.1 °C 30in /  1014.6hPa West 0.9mph /  1.4km/h 2mph /  3.2km/h 94% 0in /  0.0mm 0 W/m2
20:39 35.8 °F /  2.1 °C 34 °F /  1.1 °C 30in /  1014.6hPa WSW 2mph /  3.2km/h 3mph /  4.8km/h 93% 0in /  0.0mm 0 W/m2
20:44 35.8 °F /  2.1 °C 34 °F /  1.1 °C 30in /  1014.6hPa WSW 0.9mph /  1.4km/h 2mph /  3.2km/h 93% 0in /  0.0mm 0 W/m2
20:49 35.8 °F /  2.1 °C 34 °F /  1.1 °C 30in /  1014.6hPa Calm   2mph /  3.2km/h 93% 0in /  0.0mm 0 W/m2
20:54 35.6 °F /  2 °C 33.8 °F /  1 °C 30in /  1014.6hPa Calm   1mph /  1.6km/h 93% 0in /  0.0mm 0 W/m2
20:59 35.6 °F /  2 °C 33.8 °F /  1 °C 30in /  1014.6hPa Calm   1mph /  1.6km/h 93% 0in /  0.0mm 0 W/m2
21:04 35.6 °F /  2 °C 33.8 °F /  1 °C 30in /  1014.6hPa Calm   1mph /  1.6km/h 93% 0in /  0.0mm 0 W/m2
21:09 35.6 °F /  2 °C 33.8 °F /  1 °C 30in /  1014.6hPa Calm     93% 0in /  0.0mm 0 W/m2
21:14 35.4 °F /  1.9 °C 33.6 °F /  0.9 °C 30in /  1014.6hPa Calm   1mph /  1.6km/h 93% 0in /  0.0mm 0 W/m2
21:19 35.4 °F /  1.9 °C 33.8 °F /  1 °C 30in /  1014.6hPa Calm     94% 0in /  0.0mm 0 W/m2
21:24 35.4 °F /  1.9 °C 33.8 °F /  1 °C 30in /  1014.6hPa Calm   2mph /  3.2km/h 94% 0in /  0.0mm 0 W/m2
21:29 35.2 °F /  1.8 °C 33.6 °F /  0.9 °C 30in /  1014.9hPa Calm   1mph /  1.6km/h 94% 0in /  0.0mm 0 W/m2
21:34 35.2 °F /  1.8 °C 33.6 °F /  0.9 °C 30in /  1014.6hPa Calm     94% 0in /  0.0mm 0 W/m2
21:39 35.2 °F /  1.8 °C 33.6 °F /  0.9 °C 30in /  1014.6hPa Calm   2mph /  3.2km/h 94% 0in /  0.0mm 0 W/m2
21:44 35.1 °F /  1.7 °C 33.4 °F /  0.8 °C 30in /  1014.6hPa WSW 0.9mph /  1.4km/h 1mph /  1.6km/h 94% 0in /  0.0mm 0 W/m2
21:49 35.1 °F /  1.7 °C 33.4 °F /  0.8 °C 30in /  1014.6hPa Calm   2mph /  3.2km/h 94% 0in /  0.0mm 0 W/m2
21:54 35.1 °F /  1.7 °C 33.4 °F /  0.8 °C 30in /  1014.6hPa WSW 0.9mph /  1.4km/h 2mph /  3.2km/h 94% 0in /  0.0mm 0 W/m2
21:59 35.1 °F /  1.7 °C 33.4 °F /  0.8 °C 30in /  1014.6hPa WSW 0.9mph /  1.4km/h 2mph /  3.2km/h 94% 0in /  0.0mm 0 W/m2
22:04 35.1 °F /  1.7 °C 33.3 °F /  0.7 °C 30in /  1014.6hPa WSW 0.9mph /  1.4km/h 2mph /  3.2km/h 93% 0in /  0.0mm 0 W/m2
22:09 35.1 °F /  1.7 °C 33.3 °F /  0.7 °C 30in /  1014.6hPa SW 0.9mph /  1.4km/h 2mph /  3.2km/h 93% 0in /  0.0mm 0 W/m2
22:14 35.2 °F /  1.8 °C 33.4 °F /  0.8 °C 30in /  1014.6hPa WSW 2mph /  3.2km/h 3mph /  4.8km/h 93% 0in /  0.0mm 0 W/m2
22:19 35.2 °F /  1.8 °C 33.4 °F /  0.8 °C 30in /  1014.6hPa WSW 0.9mph /  1.4km/h 3mph /  4.8km/h 93% 0in /  0.0mm 0 W/m2
22:24 35.2 °F /  1.8 °C 33.4 °F /  0.8 °C 30in /  1014.6hPa West 0.9mph /  1.4km/h 2mph /  3.2km/h 93% 0in /  0.0mm 0 W/m2
22:29 35.2 °F /  1.8 °C 33.4 °F /  0.8 °C 30in /  1014.6hPa West 0.9mph /  1.4km/h 3mph /  4.8km/h 93% 0in /  0.0mm 0 W/m2
22:34 35.2 °F /  1.8 °C 33.1 °F /  0.6 °C 30in /  1014.6hPa West 0.9mph /  1.4km/h 2mph /  3.2km/h 92% 0in /  0.0mm 0 W/m2
22:39 35.1 °F /  1.7 °C 32.9 °F /  0.5 °C 30in /  1014.6hPa West 0.9mph /  1.4km/h 1mph /  1.6km/h 92% 0in /  0.0mm 0 W/m2
22:44 35.1 °F /  1.7 °C 32.9 °F /  0.5 °C 30in /  1014.6hPa West 0.9mph /  1.4km/h 1mph /  1.6km/h 92% 0in /  0.0mm 0 W/m2
22:49 35.1 °F /  1.7 °C 32.9 °F /  0.5 °C 30in /  1014.6hPa Calm     92% 0in /  0.0mm 0 W/m2
22:54 35.1 °F /  1.7 °C 32.9 °F /  0.5 °C 30in /  1014.6hPa SW 0.9mph /  1.4km/h 2mph /  3.2km/h 92% 0in /  0.0mm 0 W/m2
22:59 35.1 °F /  1.7 °C 32.9 °F /  0.5 °C 30in /  1014.6hPa West 2mph /  3.2km/h 3mph /  4.8km/h 92% 0in /  0.0mm 0 W/m2
23:04 35.1 °F /  1.7 °C 32.9 °F /  0.5 °C 30in /  1014.6hPa West 2mph /  3.2km/h 3mph /  4.8km/h 92% 0in /  0.0mm 0 W/m2
23:09 35.1 °F /  1.7 °C 32.9 °F /  0.5 °C 30in /  1014.6hPa West 0.9mph /  1.4km/h 3mph /  4.8km/h 92% 0in /  0.0mm 0 W/m2
23:14 35.1 °F /  1.7 °C 32.9 °F /  0.5 °C 30in /  1014.6hPa West 2mph /  3.2km/h 2mph /  3.2km/h 92% 0in /  0.0mm 0 W/m2
23:19 35.1 °F /  1.7 °C 32.7 °F /  0.4 °C 30in /  1014.6hPa WNW 0.9mph /  1.4km/h 2mph /  3.2km/h 91% 0in /  0.0mm 0 W/m2
23:24 35.1 °F /  1.7 °C 32.7 °F /  0.4 °C 30in /  1014.6hPa WNW 0.9mph /  1.4km/h 2mph /  3.2km/h 91% 0in /  0.0mm 0 W/m2
23:29 35.1 °F /  1.7 °C 32.7 °F /  0.4 °C 30in /  1014.6hPa West 2.9mph /  4.7km/h 4mph /  6.4km/h 91% 0in /  0.0mm 0 W/m2
23:34 35.1 °F /  1.7 °C 32.4 °F /  0.2 °C 30in /  1014.6hPa WSW 0.9mph /  1.4km/h 2mph /  3.2km/h 90% 0in /  0.0mm 0 W/m2
23:39 35.1 °F /  1.7 °C 32.4 °F /  0.2 °C 30in /  1014.6hPa West 0.9mph /  1.4km/h 3mph /  4.8km/h 90% 0in /  0.0mm 0 W/m2
23:44 35.1 °F /  1.7 °C 32.4 °F /  0.2 °C 30in /  1014.6hPa West 0.9mph /  1.4km/h 3mph /  4.8km/h 90% 0in /  0.0mm 0 W/m2
23:49 35.1 °F /  1.7 °C 32.2 °F /  0.1 °C 30in /  1014.6hPa West 2.9mph /  4.7km/h 3mph /  4.8km/h 89% 0in /  0.0mm 0 W/m2
23:54 34.9 °F /  1.6 °C 32 °F /  0 °C 30in /  1014.6hPa West 0.9mph /  1.4km/h 3mph /  4.8km/h 89% 0in /  0.0mm 0 W/m2
23:59 34.9 °F /  1.6 °C 32 °F /  0 °C 30in /  1014.6hPa West 0.9mph /  1.4km/h 3mph /  4.8km/h 89% 0in /  0.0mm 0 W/m2
Juneau County Weather
Compliments of Weather Underground - 4 mb